Time;durP1;ratioP1;P1;durP2;ratioP2;P2;SDS_P1;SDS_P2;PMS_P1;PMS_P2;Temp;Humidity;BMP_temperature;BMP_pressure;BME280_temperature;BME280_humidity;BME280_pressure;Samples;Min_cycle;Max_cycle;Signal;HPM_P1;HPM_P2
2023/04/08 00:00:44;;;;;;;12.65;5.05;;;;;;;10.20;65.00;102172.28;5116495;28;20071;-60
2023/04/08 00:03:11;;;;;;;11.80;5.38;;;;;;;10.20;65.10;102182.19;5118320;28;20062;-60
2023/04/08 00:05:41;;;;;;;12.00;4.93;;;;;;;10.19;65.00;102183.19;5119465;28;20063;-59
2023/04/08 00:08:08;;;;;;;12.93;6.60;;;;;;;10.18;65.05;102182.34;5116861;28;20057;-59
2023/04/08 00:10:36;;;;;;;13.68;5.38;;;;;;;10.18;65.32;102179.66;5112844;28;20623;-59
2023/04/08 00:13:04;;;;;;;13.15;5.93;;;;;;;10.18;65.55;102181.53;5115413;28;20138;-59
2023/04/08 00:15:32;;;;;;;15.88;5.72;;;;;;;10.17;65.16;102172.63;5116478;28;20101;-60
2023/04/08 00:17:59;;;;;;;15.40;4.95;;;;;;;10.18;65.29;102181.53;5118079;28;20094;-59
2023/04/08 00:20:27;;;;;;;16.75;5.40;;;;;;;10.18;65.29;102173.47;5120155;28;20074;-59
2023/04/08 00:22:56;;;;;;;14.85;5.00;;;;;;;10.19;64.82;102183.19;5119082;28;20039;-59
2023/04/08 00:25:24;;;;;;;13.68;5.88;;;;;;;10.19;65.43;102172.44;5120063;28;20055;-59
2023/04/08 00:27:52;;;;;;;11.27;5.38;;;;;;;10.19;65.29;102170.59;5117718;28;20052;-59
2023/04/08 00:30:20;;;;;;;11.88;5.45;;;;;;;10.19;64.96;102175.13;5119727;28;20067;-59
2023/04/08 00:32:48;;;;;;;14.27;5.93;;;;;;;10.19;65.10;102172.44;5115154;28;20103;-59
2023/04/08 00:35:16;;;;;;;14.63;5.85;;;;;;;10.17;65.48;102186.06;5120804;28;20058;-59
2023/04/08 00:37:43;;;;;;;12.15;6.43;;;;;;;10.19;65.47;102175.13;5120370;28;20102;-59
2023/04/08 00:40:13;;;;;;;13.93;5.97;;;;;;;10.18;65.38;102184.22;5116042;28;20032;-59
2023/04/08 00:42:40;;;;;;;12.30;6.55;;;;;;;10.19;65.17;102183.19;5120500;28;20146;-59
2023/04/08 00:45:09;;;;;;;12.18;4.88;;;;;;;10.18;65.10;102187.72;5111750;28;20844;-59
2023/04/08 00:47:37;;;;;;;14.57;6.00;;;;;;;10.16;65.05;102189.75;5115919;28;20122;-60
2023/04/08 00:50:08;;;;;;;9.93;5.88;;;;;;;10.17;65.24;102182.53;5118911;28;20043;-59
2023/04/08 00:52:35;;;;;;;17.75;7.00;;;;;;;10.14;64.95;102186.44;5119901;28;20044;-60
2023/04/08 00:55:04;;;;;;;10.13;6.22;;;;;;;10.16;65.10;102188.94;5116612;28;20071;-59
2023/04/08 00:57:34;;;;;;;12.65;8.13;;;;;;;10.15;65.80;102181.91;5123426;27;20047;-59
2023/04/08 01:00:04;;;;;;;13.90;7.20;;;;;;;10.14;65.56;102194.50;5120770;28;20126;-58
2023/04/08 01:02:39;;;;;;;13.27;6.68;;;;;;;10.14;65.51;102185.59;5118398;28;20095;-59
2023/04/08 01:05:11;;;;;;;14.57;6.35;;;;;;;10.13;65.16;102187.44;5119510;28;20115;-59
2023/04/08 01:07:44;;;;;;;18.40;6.47;;;;;;;10.13;65.41;102198.19;5122596;28;20074;-60
2023/04/08 01:10:17;;;;;;;16.08;7.30;;;;;;;10.11;65.56;102184.94;5118013;28;20048;-59
2023/04/08 01:12:56;;;;;;;15.02;6.35;;;;;;;10.11;65.42;102186.81;5122039;28;20063;-59
2023/04/08 01:15:26;;;;;;;13.63;6.85;;;;;;;10.10;65.55;102190.50;5117008;28;20067;-59
2023/04/08 01:17:55;;;;;;;17.02;7.03;;;;;;;10.11;65.54;102193.00;5119573;28;20074;-59
2023/04/08 01:20:25;;;;;;;16.88;8.40;;;;;;;10.12;65.33;102191.16;5122195;28;20090;-59
2023/04/08 01:23:03;;;;;;;16.15;6.65;;;;;;;10.11;65.49;102193.00;5120537;28;20044;-59
2023/04/08 01:25:33;;;;;;;20.00;7.38;;;;;;;10.10;65.51;102188.66;5122965;28;20123;-59
2023/04/08 01:28:05;;;;;;;13.45;6.72;;;;;;;10.10;65.34;102193.19;5122249;28;20061;-59
2023/04/08 01:30:35;;;;;;;17.17;6.78;;;;;;;10.11;65.49;102198.38;5121300;28;20099;-59
2023/04/08 01:33:05;;;;;;;17.20;6.50;;;;;;;10.10;65.38;102193.19;5119062;28;20076;-59
2023/04/08 01:35:33;;;;;;;18.38;7.50;;;;;;;10.11;65.53;102195.69;5115693;28;20044;-59
2023/04/08 01:38:03;;;;;;;14.02;6.75;;;;;;;10.10;65.82;102202.09;5122225;28;20047;-59
2023/04/08 01:40:32;;;;;;;11.25;6.28;;;;;;;10.11;65.05;102197.53;5120386;28;20248;-59
2023/04/08 01:43:03;;;;;;;11.85;6.70;;;;;;;10.10;65.64;102201.25;5122764;28;20103;-59
2023/04/08 01:45:31;;;;;;;14.00;7.35;;;;;;;10.10;65.68;102206.63;5122570;27;20491;-59
2023/04/08 01:48:00;;;;;;;17.33;8.13;;;;;;;10.10;65.55;102204.78;5118467;28;20056;-59
2023/04/08 01:50:28;;;;;;;16.05;7.53;;;;;;;10.09;66.01;102202.28;5118771;28;20104;-59
2023/04/08 01:52:58;;;;;;;11.35;6.60;;;;;;;10.10;65.69;102209.31;5117835;28;20048;-59
2023/04/08 01:55:27;;;;;;;14.95;7.90;;;;;;;10.10;65.98;102206.63;5119663;28;20045;-60
2023/04/08 01:57:58;;;;;;;12.15;7.13;;;;;;;10.10;65.65;102203.94;5113036;28;20365;-59
2023/04/08 02:00:29;;;;;;;13.63;7.55;;;;;;;10.10;65.88;102199.41;5114666;28;20535;-59
2023/04/08 02:02:59;;;;;;;16.63;8.25;;;;;;;10.10;65.77;102199.41;5116834;28;20074;-59
2023/04/08 02:05:27;;;;;;;15.88;9.02;;;;;;;10.10;65.48;102195.88;5123347;28;20055;-59
2023/04/08 02:07:55;;;;;;;14.60;7.82;;;;;;;10.11;65.70;102205.59;5111369;28;20048;-59
2023/04/08 02:10:23;;;;;;;14.90;8.07;;;;;;;10.10;66.09;102199.41;5121949;28;20099;-60
2023/04/08 02:12:50;;;;;;;17.52;7.47;;;;;;;10.10;66.03;102206.63;5122635;28;20101;-60
2023/04/08 02:15:18;;;;;;;16.95;8.55;;;;;;;10.10;65.91;102206.63;5120995;28;20124;-59
2023/04/08 02:17:50;;;;;;;16.33;8.73;;;;;;;10.11;65.97;102193.00;5118551;28;20147;-60
2023/04/08 02:20:21;;;;;;;12.82;7.70;;;;;;;10.11;65.80;102209.13;5121340;28;20131;-59
2023/04/08 02:22:53;;;;;;;15.15;9.18;;;;;;;10.10;65.83;102209.31;5121093;28;20134;-59
2023/04/08 02:25:24;;;;;;;17.65;7.88;;;;;;;10.10;66.21;102203.94;5122235;28;20044;-59
2023/04/08 02:27:54;;;;;;;16.90;7.82;;;;;;;10.10;65.60;102207.47;5120435;28;20074;-59
2023/04/08 02:30:24;;;;;;;16.85;8.63;;;;;;;10.09;65.96;102204.97;5118307;28;20058;-59
2023/04/08 02:32:54;;;;;;;16.27;9.10;;;;;;;10.09;66.34;102197.72;5122787;28;20069;-59
2023/04/08 02:35:23;;;;;;;21.17;9.43;;;;;;;10.08;66.96;102208.66;5122530;28;20068;-59
2023/04/08 02:37:51;;;;;;;19.48;9.57;;;;;;;10.07;66.51;102212.38;5118667;28;20049;-59
2023/04/08 02:40:26;;;;;;;22.50;10.85;;;;;;;10.06;66.59;102211.53;5120252;28;20050;-59
2023/04/08 02:42:55;;;;;;;16.75;9.35;;;;;;;10.06;66.78;102214.22;5119843;28;20039;-59
2023/04/08 02:45:25;;;;;;;21.98;11.05;;;;;;;10.02;66.72;102204.88;5116783;28;20044;-59
2023/04/08 02:47:54;;;;;;;21.20;9.50;;;;;;;10.04;67.12;102208.19;5117416;28;20036;-59
2023/04/08 02:50:22;;;;;;;18.02;8.90;;;;;;;10.05;66.97;102217.09;5117498;28;20139;-59
2023/04/08 02:52:50;;;;;;;23.55;10.65;;;;;;;10.04;67.08;102216.25;5122538;28;20225;-59
2023/04/08 02:55:18;;;;;;;26.33;11.98;;;;;;;10.03;67.28;102219.97;5122729;28;20114;-59
2023/04/08 02:57:48;;;;;;;22.15;11.25;;;;;;;10.01;67.14;102223.84;5121122;28;20089;-59
2023/04/08 03:00:16;;;;;;;18.77;10.43;;;;;;;10.04;67.19;102231.53;5119264;28;20067;-59
2023/04/08 03:02:44;;;;;;;19.00;9.50;;;;;;;10.00;67.46;102225.69;5122259;28;20108;-59
2023/04/08 03:05:15;;;;;;;21.30;10.38;;;;;;;10.02;67.49;102230.88;5122668;28;20130;-59
2023/04/08 03:07:42;;;;;;;20.60;10.88;;;;;;;10.01;67.16;102230.06;5114062;28;20059;-59
2023/04/08 03:10:12;;;;;;;23.92;11.00;;;;;;;9.98;67.10;102221.53;5118413;28;20048;-59
2023/04/08 03:12:40;;;;;;;17.80;10.90;;;;;;;10.02;67.29;102234.41;5119963;28;20047;-59
2023/04/08 03:15:08;;;;;;;19.67;11.63;;;;;;;9.98;67.94;102225.06;5118626;28;20358;-59
2023/04/08 03:17:36;;;;;;;16.95;10.75;;;;;;;10.01;67.62;102227.38;5117900;28;20075;-59
2023/04/08 03:20:05;;;;;;;19.02;11.27;;;;;;;10.00;67.46;102222.19;5119282;28;20079;-59
2023/04/08 03:22:36;;;;;;;22.75;11.38;;;;;;;10.00;67.31;102228.38;5122297;28;20108;-59
2023/04/08 03:25:04;;;;;;;19.52;10.02;;;;;;;10.01;67.22;102230.06;5119825;28;20059;-59
2023/04/08 03:27:32;;;;;;;18.42;10.95;;;;;;;10.01;67.31;102232.75;5116239;28;20052;-60
2023/04/08 03:29:59;;;;;;;20.73;11.50;;;;;;;10.00;67.34;102227.56;5120603;28;20067;-59
2023/04/08 03:32:27;;;;;;;21.05;11.90;;;;;;;10.00;67.30;102238.28;5117480;28;20039;-59
2023/04/08 03:34:55;;;;;;;20.98;11.60;;;;;;;10.00;67.80;102230.25;5120323;28;20039;-59
2023/04/08 03:37:23;;;;;;;20.83;11.20;;;;;;;9.99;67.74;102226.72;5119115;28;20179;-59
2023/04/08 03:39:53;;;;;;;17.83;10.15;;;;;;;10.00;67.64;102231.06;5121098;28;20048;-59
2023/04/08 03:42:21;;;;;;;19.05;10.57;;;;;;;10.00;67.30;102236.44;5117068;28;20043;-59
2023/04/08 03:44:48;;;;;;;17.33;9.27;;;;;;;9.99;67.11;102233.94;5117449;28;20112;-61
2023/04/08 03:47:16;;;;;;;18.55;10.40;;;;;;;10.01;67.26;102234.59;5116588;28;20055;-59
2023/04/08 03:49:44;;;;;;;20.45;10.95;;;;;;;10.01;67.43;102234.59;5116319;28;20068;-59
2023/04/08 03:52:12;;;;;;;19.13;9.90;;;;;;;10.02;67.43;102234.41;5120507;28;20063;-59
2023/04/08 03:54:39;;;;;;;18.27;10.45;;;;;;;10.03;67.35;102243.31;5113987;28;20078;-59
2023/04/08 03:57:10;;;;;;;17.30;10.52;;;;;;;10.01;67.58;102240.78;5119003;28;20110;-59
2023/04/08 03:59:39;;;;;;;14.82;10.15;;;;;;;10.02;67.66;102236.25;5112728;28;20098;-59
2023/04/08 04:02:07;;;;;;;19.60;10.68;;;;;;;10.01;67.56;102229.22;5118984;28;20090;-59
2023/04/08 04:04:35;;;;;;;21.38;11.05;;;;;;;10.02;67.55;102236.25;5118781;28;20048;-59
2023/04/08 04:07:03;;;;;;;19.40;11.07;;;;;;;10.01;67.70;102232.75;5113775;28;20240;-60
2023/04/08 04:09:31;;;;;;;21.52;12.60;;;;;;;10.02;67.77;102233.56;5119274;28;20123;-59
2023/04/08 04:11:59;;;;;;;21.38;12.60;;;;;;;10.01;67.57;102232.75;5116112;28;20043;-60
2023/04/08 04:14:28;;;;;;;22.08;11.40;;;;;;;10.01;68.09;102238.13;5116401;28;20055;-58
2023/04/08 04:16:56;;;;;;;17.42;11.63;;;;;;;10.01;67.74;102229.22;5106037;28;20063;-60
2023/04/08 04:19:23;;;;;;;21.05;11.98;;;;;;;10.01;67.54;102226.53;5099186;28;20131;-59
2023/04/08 04:21:51;;;;;;;21.27;12.32;;;;;;;10.01;67.57;102230.06;5104323;28;20070;-60
2023/04/08 04:24:19;;;;;;;20.63;12.63;;;;;;;10.00;67.46;102233.75;5096818;28;20052;-60
2023/04/08 04:26:46;;;;;;;21.08;12.23;;;;;;;10.02;67.83;102241.63;4743594;28;10000492;-60
2023/04/08 04:29:14;;;;;;;19.60;11.23;;;;;;;10.01;67.40;102238.13;5085927;28;20075;-60
2023/04/08 04:31:43;;;;;;;25.85;12.88;;;;;;;10.00;67.96;102244.50;5101420;28;20074;-60
2023/04/08 04:34:11;;;;;;;24.02;13.50;;;;;;;10.00;68.02;102249.03;5096136;28;20060;-59
2023/04/08 04:36:39;;;;;;;21.80;13.70;;;;;;;9.99;68.34;102253.56;5090293;28;20044;-60
2023/04/08 04:39:07;;;;;;;21.85;13.32;;;;;;;9.97;67.88;102252.94;5094867;28;20162;-60
2023/04/08 04:41:39;;;;;;;26.00;13.23;;;;;;;9.97;68.07;102255.63;5094014;28;20051;-60
2023/04/08 04:44:06;;;;;;;24.75;13.65;;;;;;;9.97;68.65;102250.25;5095131;28;20087;-60
2023/04/08 04:46:34;;;;;;;22.15;14.02;;;;;;;9.97;68.70;102257.47;5093529;28;20068;-60
2023/04/08 04:49:03;;;;;;;22.95;13.50;;;;;;;9.94;68.53;102255.97;5096654;28;20420;-60
2023/04/08 04:51:32;;;;;;;22.98;14.23;;;;;;;9.97;68.58;102270.88;5095601;28;20041;-60
2023/04/08 04:54:00;;;;;;;24.13;14.13;;;;;;;9.95;67.92;102268.38;5094740;28;20040;-60
2023/04/08 04:56:27;;;;;;;25.80;15.75;;;;;;;9.95;68.68;102264.88;5093421;28;20055;-60
2023/04/08 04:58:55;;;;;;;25.45;17.05;;;;;;;9.93;68.89;102265.06;5095820;28;20079;-61
2023/04/08 05:01:23;;;;;;;28.58;17.65;;;;;;;9.91;69.27;102267.09;5095979;28;20060;-61
2023/04/08 05:03:51;;;;;;;25.58;15.55;;;;;;;9.92;69.21;102278.66;5094113;28;20040;-60
2023/04/08 05:06:20;;;;;;;27.58;16.27;;;;;;;9.92;69.26;102273.28;5095672;28;20191;-59
2023/04/08 05:08:47;;;;;;;34.70;17.90;;;;;;;9.92;69.46;102278.66;5092895;28;20074;-61
2023/04/08 05:11:17;;;;;;;29.23;17.13;;;;;;;9.90;69.00;102286.06;5093334;28;20048;-59
2023/04/08 05:13:45;;;;;;;29.75;16.63;;;;;;;9.90;69.20;102281.53;5086193;28;20062;-60
2023/04/08 05:16:13;;;;;;;31.38;16.25;;;;;;;9.90;68.77;102286.91;5089779;28;20062;-60
2023/04/08 05:18:41;;;;;;;31.20;17.27;;;;;;;9.90;69.55;102278.00;5102878;28;20052;-60
2023/04/08 05:21:09;;;;;;;32.42;19.98;;;;;;;9.90;68.99;102292.28;5112036;28;20062;-60
2023/04/08 05:23:38;;;;;;;35.38;21.45;;;;;;;9.89;70.33;102295.97;5114494;28;20047;-60
2023/04/08 05:26:07;;;;;;;38.53;21.10;;;;;;;9.87;70.87;102294.47;5109943;28;20142;-59
2023/04/08 05:28:35;;;;;;;37.35;22.00;;;;;;;9.85;70.75;102300.03;5115845;28;20051;-62
2023/04/08 05:31:03;;;;;;;33.38;20.70;;;;;;;9.85;70.36;102291.97;5096616;28;20036;-60
2023/04/08 05:33:30;;;;;;;34.88;21.17;;;;;;;9.86;69.79;102301.72;5105141;28;20072;-60
2023/04/08 05:35:58;;;;;;;39.15;21.00;;;;;;;9.87;69.81;102294.47;5114721;28;20052;-60
2023/04/08 05:38:26;;;;;;;37.10;19.42;;;;;;;9.87;69.77;102298.00;5113100;28;20101;-60
2023/04/08 05:40:55;;;;;;;36.88;22.58;;;;;;;9.88;69.77;102302.34;5114791;28;20055;-59
2023/04/08 05:43:23;;;;;;;35.35;21.30;;;;;;;9.87;69.87;102298.00;5113286;27;20495;-59
2023/04/08 05:45:51;;;;;;;34.67;21.00;;;;;;;9.89;69.67;102300.50;5118639;28;20119;-59
2023/04/08 05:48:18;;;;;;;36.53;20.95;;;;;;;9.90;69.24;102302.19;5113582;28;20051;-58
2023/04/08 05:50:47;;;;;;;36.80;20.60;;;;;;;9.90;69.95;102305.69;5112979;28;20051;-60
2023/04/08 05:53:15;;;;;;;37.15;20.95;;;;;;;9.91;69.36;102310.06;5111802;28;20178;-61
2023/04/08 05:55:44;;;;;;;38.65;19.48;;;;;;;9.93;69.37;102316.06;5117314;28;20073;-60
2023/04/08 05:58:13;;;;;;;34.75;19.90;;;;;;;9.93;69.94;102312.56;5116300;28;20054;-60
2023/04/08 06:00:41;;;;;;;32.35;19.13;;;;;;;9.94;69.55;102308.84;5111972;28;20054;-60
2023/04/08 06:03:09;;;;;;;34.28;18.02;;;;;;;9.95;69.52;102321.25;5118954;28;20161;-60
2023/04/08 06:05:37;;;;;;;35.03;20.15;;;;;;;9.94;69.66;102315.06;5118369;28;20059;-59
2023/04/08 06:08:05;;;;;;;41.47;19.75;;;;;;;9.94;69.63;102322.28;5117403;28;20257;-61
2023/04/08 06:10:33;;;;;;;39.75;20.50;;;;;;;9.96;69.10;102321.09;5113595;28;20043;-62
2023/04/08 06:13:01;;;;;;;32.85;18.95;;;;;;;9.95;69.50;102326.63;5115892;28;20289;-61
2023/04/08 06:15:31;;;;;;;33.53;17.70;;;;;;;9.97;69.09;102324.59;5118663;28;20059;-62
2023/04/08 06:18:00;;;;;;;35.45;18.42;;;;;;;9.97;69.03;102328.13;5117884;28;20051;-61
2023/04/08 06:20:28;;;;;;;32.47;18.63;;;;;;;9.98;69.40;102331.66;5120116;28;20393;-60
2023/04/08 06:22:56;;;;;;;35.00;18.75;;;;;;;9.96;69.27;102325.63;5117126;28;20040;-59
2023/04/08 06:25:24;;;;;;;32.45;18.55;;;;;;;9.96;69.85;102336.38;5115434;28;20143;-59
2023/04/08 06:27:51;;;;;;;29.17;17.50;;;;;;;9.97;69.48;102340.72;5118510;28;20047;-60
2023/04/08 06:30:19;;;;;;;32.95;18.45;;;;;;;9.99;69.38;102341.38;5111983;28;20083;-61
2023/04/08 06:32:48;;;;;;;30.08;17.65;;;;;;;10.00;69.24;102348.41;5105418;28;20061;-62
2023/04/08 06:35:16;;;;;;;27.98;16.38;;;;;;;10.00;69.70;102345.72;5119750;28;20048;-61
2023/04/08 06:37:44;;;;;;;28.90;17.83;;;;;;;10.00;69.14;102351.09;5111828;28;20077;-60
2023/04/08 06:40:12;;;;;;;29.90;17.15;;;;;;;10.01;69.15;102353.59;5114866;28;20051;-61
2023/04/08 06:42:41;;;;;;;28.67;17.55;;;;;;;10.04;69.76;102355.09;5117805;28;20055;-63
2023/04/08 06:45:10;;;;;;;28.75;17.77;;;;;;;10.03;69.50;102358.78;5112064;28;20157;-64
2023/04/08 06:47:38;;;;;;;28.00;16.58;;;;;;;10.02;69.39;102371.41;5115169;28;20044;-64
2023/04/08 06:50:08;;;;;;;29.00;16.58;;;;;;;10.10;69.02;102365.94;5111180;28;20526;-64
2023/04/08 06:52:36;;;;;;;32.00;16.65;;;;;;;10.20;68.87;102367.56;5119492;28;20054;-64
2023/04/08 06:55:04;;;;;;;31.23;16.90;;;;;;;10.39;68.18;102370.56;5118391;28;20047;-64
2023/04/08 06:57:31;;;;;;;22.85;15.82;;;;;;;10.64;67.58;102367.59;5117652;28;20251;-64
2023/04/08 06:59:59;;;;;;;24.63;15.63;;;;;;;10.87;66.51;102371.03;5104966;28;20115;-64
2023/04/08 07:02:27;;;;;;;22.67;14.93;;;;;;;11.12;65.71;102370.72;5118532;28;20661;-64
2023/04/08 07:04:55;;;;;;;24.23;15.45;;;;;;;11.23;65.11;102381.84;5119385;28;20082;-64
2023/04/08 07:07:25;;;;;;;22.55;15.27;;;;;;;11.23;64.77;102383.69;5117500;28;20631;-65
2023/04/08 07:09:52;;;;;;;20.30;14.05;;;;;;;11.17;64.89;102377.22;5116635;28;20520;-63
2023/04/08 07:12:20;;;;;;;22.75;14.38;;;;;;;11.09;65.11;102385.38;5116816;28;20214;-63
2023/04/08 07:14:48;;;;;;;20.88;14.20;;;;;;;10.99;65.41;102385.69;5111380;28;20316;-63
2023/04/08 07:17:15;;;;;;;26.58;14.82;;;;;;;10.92;65.78;102389.31;5113787;28;20174;-63
2023/04/08 07:19:43;;;;;;;24.88;14.00;;;;;;;10.85;65.95;102383.00;5113444;28;20127;-63
2023/04/08 07:22:11;;;;;;;22.63;13.70;;;;;;;10.80;66.12;102396.16;5119158;28;20054;-63
2023/04/08 07:24:41;;;;;;;20.08;14.18;;;;;;;10.75;66.29;102397.56;5118853;28;20445;-63
2023/04/08 07:27:09;;;;;;;22.33;14.07;;;;;;;10.71;66.44;102406.19;5116540;28;20047;-62
2023/04/08 07:29:37;;;;;;;18.83;13.02;;;;;;;10.71;66.45;102404.31;5117525;28;20062;-62
2023/04/08 07:32:05;;;;;;;20.58;14.55;;;;;;;10.71;66.46;102411.56;5118262;28;20058;-62
2023/04/08 07:34:34;;;;;;;19.50;14.65;;;;;;;10.67;66.47;102407.56;5106726;28;20491;-63
2023/04/08 07:37:02;;;;;;;19.65;13.00;;;;;;;10.54;66.58;102397.44;5117599;28;20067;-63
2023/04/08 07:39:30;;;;;;;20.70;14.00;;;;;;;10.61;66.81;102414.50;5117923;28;20108;-63
2023/04/08 07:41:59;;;;;;;21.67;14.75;;;;;;;10.60;66.93;102414.69;5112467;28;20059;-63
2023/04/08 07:44:27;;;;;;;20.48;13.80;;;;;;;10.57;66.80;102415.91;5116753;28;20052;-62
2023/04/08 07:46:55;;;;;;;21.45;13.40;;;;;;;10.56;66.87;102413.41;5115319;28;20159;-63
2023/04/08 07:49:22;;;;;;;22.02;14.60;;;;;;;10.54;66.88;102421.63;5110809;28;20048;-63
2023/04/08 07:51:50;;;;;;;19.42;13.35;;;;;;;10.57;66.78;102418.59;5117944;28;20051;-63
2023/04/08 07:54:18;;;;;;;23.05;14.35;;;;;;;10.60;66.86;102422.75;5116913;28;20063;-63
2023/04/08 07:56:46;;;;;;;23.73;13.68;;;;;;;10.61;66.84;102419.88;5113853;28;20599;-63
2023/04/08 07:59:15;;;;;;;20.75;14.30;;;;;;;10.62;67.00;102426.94;5115082;28;20062;-63
2023/04/08 08:01:43;;;;;;;18.65;13.25;;;;;;;10.64;67.02;102429.44;5117905;28;20063;-62
2023/04/08 08:04:10;;;;;;;21.08;14.20;;;;;;;10.63;67.13;102435.84;5116377;28;20043;-64
2023/04/08 08:06:38;;;;;;;21.05;13.77;;;;;;;10.60;66.99;102441.59;5116951;28;20086;-64
2023/04/08 08:09:06;;;;;;;20.65;13.63;;;;;;;10.59;66.83;102434.53;5111866;28;20077;-63
2023/04/08 08:11:34;;;;;;;17.17;13.27;;;;;;;10.59;66.96;102434.53;5114638;28;20067;-65
2023/04/08 08:14:03;;;;;;;20.02;14.07;;;;;;;10.54;67.11;102432.41;5115742;28;20134;-65
2023/04/08 08:16:32;;;;;;;21.77;13.27;;;;;;;10.59;66.97;102442.59;5115213;28;20111;-65
2023/04/08 08:19:00;;;;;;;19.58;13.98;;;;;;;10.58;67.26;102447.13;5096149;28;20127;-65
2023/04/08 08:21:28;;;;;;;20.55;14.38;;;;;;;10.59;67.19;102447.97;5099799;28;20055;-65
2023/04/08 08:23:56;;;;;;;22.60;15.75;;;;;;;10.59;67.20;102443.44;5092772;28;20519;-64
2023/04/08 08:26:24;;;;;;;19.80;14.70;;;;;;;10.60;66.98;102449.66;5091885;28;20044;-65
2023/04/08 08:28:52;;;;;;;24.98;15.82;;;;;;;10.58;67.06;102452.53;5095454;28;20052;-64
2023/04/08 08:31:20;;;;;;;25.75;15.77;;;;;;;10.56;67.71;102453.72;5091588;28;20048;-66
2023/04/08 08:33:49;;;;;;;21.30;15.40;;;;;;;10.57;67.42;102458.06;5085261;28;20075;-64
2023/04/08 08:36:17;;;;;;;24.73;16.17;;;;;;;10.57;67.42;102458.91;5097729;28;20076;-64
2023/04/08 08:38:45;;;;;;;23.73;16.70;;;;;;;10.56;67.00;102465.31;5093691;28;20090;-65
2023/04/08 08:41:12;;;;;;;21.92;16.55;;;;;;;10.56;67.16;102467.16;5092306;28;20391;-64
2023/04/08 08:43:40;;;;;;;27.33;17.05;;;;;;;10.56;67.21;102468.00;5092622;28;20094;-63
2023/04/08 08:46:10;;;;;;;24.23;16.38;;;;;;;10.57;67.04;102468.81;5097801;28;20104;-63
2023/04/08 08:48:39;;;;;;;21.55;15.32;;;;;;;10.54;67.38;102466.50;5099228;28;20261;-64
2023/04/08 08:51:10;;;;;;;24.92;16.83;;;;;;;10.55;67.41;102471.69;5091798;28;20044;-64
2023/04/08 08:53:38;;;;;;;23.55;16.40;;;;;;;10.53;67.05;102465.66;5099796;28;20063;-63
2023/04/08 08:56:09;;;;;;;25.30;16.45;;;;;;;10.55;66.97;102469.00;5094602;28;20048;-63
2023/04/08 08:58:39;;;;;;;25.73;17.45;;;;;;;10.55;67.07;102463.63;5091738;28;20059;-66
2023/04/08 09:01:36;;;;;;;25.05;17.60;;;;;;;10.56;66.79;102480.59;5095228;28;20052;-61
2023/04/08 09:04:10;;;;;;;28.60;17.95;;;;;;;10.56;66.87;102477.91;5094645;28;20072;-66
2023/04/08 09:06:40;;;;;;;25.17;18.60;;;;;;;10.49;67.30;102464.38;5103201;28;20272;-66
2023/04/08 09:09:10;;;;;;;29.27;21.15;;;;;;;10.56;66.86;102475.22;5098025;28;20332;-65
2023/04/08 09:11:39;;;;;;;25.60;19.02;;;;;;;10.56;67.21;102488.66;5096301;28;20076;-66
2023/04/08 09:14:21;;;;;;;32.28;20.77;;;;;;;10.55;67.22;102487.00;5088543;28;20076;-65
2023/04/08 09:16:49;;;;;;;27.75;21.30;;;;;;;10.57;67.06;102493.03;5092751;28;20063;-65
2023/04/08 09:19:17;;;;;;;29.17;21.30;;;;;;;10.56;67.00;102496.72;5100730;28;20139;-65
2023/04/08 09:21:46;;;;;;;31.90;22.88;;;;;;;10.57;67.27;102495.72;5100824;28;20067;-65
2023/04/08 09:24:28;;;;;;;30.75;21.90;;;;;;;10.56;67.40;102496.72;5095995;28;20044;-65
2023/04/08 09:26:56;;;;;;;33.75;23.13;;;;;;;10.57;67.40;102501.09;5099124;28;20085;-65
2023/04/08 09:29:25;;;;;;;29.92;21.75;;;;;;;10.59;67.32;102507.13;5098932;28;20499;-65
2023/04/08 09:31:56;;;;;;;24.55;19.10;;;;;;;10.58;67.12;102505.44;5097659;28;20055;-66
2023/04/08 09:34:26;;;;;;;26.52;19.42;;;;;;;10.57;67.19;102507.31;5097980;28;20058;-65
2023/04/08 09:36:55;;;;;;;27.42;19.67;;;;;;;10.57;67.33;102506.47;5093978;28;20106;-64
2023/04/08 09:39:23;;;;;;;29.48;20.27;;;;;;;10.57;67.09;102506.47;5093650;28;20076;-64
2023/04/08 09:41:52;;;;;;;26.52;19.25;;;;;;;10.58;67.21;102500.06;5086773;28;20056;-65
2023/04/08 09:44:22;;;;;;;25.55;19.40;;;;;;;10.58;67.15;102506.28;5097538;28;20044;-67
2023/04/08 09:47:01;;;;;;;26.20;18.67;;;;;;;10.59;66.80;102512.50;5094402;28;20082;-66
2023/04/08 09:49:33;;;;;;;24.98;18.95;;;;;;;10.59;67.13;102509.81;5096057;28;20376;-66
2023/04/08 09:52:07;;;;;;;23.70;17.17;;;;;;;10.59;66.80;102507.13;5096934;28;20060;-69
2023/04/08 09:54:44;;;;;;;25.13;16.95;;;;;;;10.59;66.97;102512.50;5097580;28;20068;-64
2023/04/08 09:57:16;;;;;;;21.30;15.57;;;;;;;10.54;66.91;102510.34;5094439;28;20540;-65
2023/04/08 09:59:50;;;;;;;23.60;18.02;;;;;;;10.58;66.84;102517.03;5099272;28;20149;-65
2023/04/08 10:02:29;;;;;;;21.15;16.60;;;;;;;10.58;66.89;102517.03;5094529;28;20112;-65
2023/04/08 10:04:59;;;;;;;22.88;17.00;;;;;;;10.59;66.71;102516.03;5089991;28;20127;-67
2023/04/08 10:07:29;;;;;;;23.23;17.08;;;;;;;10.60;66.75;102519.56;5096799;28;20448;-67
2023/04/08 10:09:58;;;;;;;21.67;16.77;;;;;;;10.62;67.01;102514.81;5091843;28;20152;-69
2023/04/08 10:12:26;;;;;;;24.15;17.95;;;;;;;10.64;66.86;102516.31;5095731;28;20051;-67
2023/04/08 10:15:28;;;;;;;21.77;16.77;;;;;;;10.64;67.07;102515.47;5094487;28;20043;-66
2023/04/08 10:18:17;;;;;;;22.75;16.92;;;;;;;10.64;66.83;102513.63;5105210;28;20083;-67
2023/04/08 10:20:46;;;;;;;26.42;19.00;;;;;;;10.67;66.95;102510.56;5109195;28;20048;-69
2023/04/08 10:23:16;;;;;;;23.38;18.13;;;;;;;10.68;67.05;102520.31;5118085;28;20047;-66
2023/04/08 10:25:44;;;;;;;25.30;18.77;;;;;;;10.69;67.01;102526.53;5117603;28;20058;-66
2023/04/08 10:28:25;;;;;;;23.70;17.83;;;;;;;10.69;67.32;102521.16;5114170;28;20427;-60
2023/04/08 10:30:55;;;;;;;23.42;17.33;;;;;;;10.71;67.15;102524.50;5111543;28;20058;-66
2023/04/08 10:33:25;;;;;;;24.05;16.52;;;;;;;10.71;66.87;102521.81;5119520;28;20043;-65
2023/04/08 10:35:54;;;;;;;27.15;19.08;;;;;;;10.71;66.95;102521.81;5114254;28;20056;-67
2023/04/08 10:38:24;;;;;;;21.88;17.30;;;;;;;10.72;67.00;102518.94;5115519;28;20044;-66
2023/04/08 10:40:52;;;;;;;24.20;17.30;;;;;;;10.73;66.90;102514.41;5113078;28;20078;-68
2023/04/08 10:43:20;;;;;;;23.27;17.20;;;;;;;10.73;66.88;102506.31;5115415;28;20058;-67
2023/04/08 10:45:50;;;;;;;25.33;18.58;;;;;;;10.75;66.84;102504.28;5117756;28;20044;-66
2023/04/08 10:48:19;;;;;;;22.65;16.60;;;;;;;10.76;66.88;102503.28;5119126;28;20078;-66
2023/04/08 10:50:54;;;;;;;25.88;17.65;;;;;;;10.76;66.90;102501.41;5114408;28;20044;-68
2023/04/08 10:53:31;;;;;;;23.83;17.52;;;;;;;10.75;66.98;102502.44;5121416;28;20048;-68
2023/04/08 10:56:06;;;;;;;22.80;16.85;;;;;;;10.72;66.59;102494.72;5119059;28;20070;-66
2023/04/08 10:58:35;;;;;;;24.63;18.35;;;;;;;10.79;66.31;102502.06;5116852;28;20051;-68
2023/04/08 11:01:05;;;;;;;23.52;17.48;;;;;;;10.81;66.52;102498.19;5119523;28;20141;-67
2023/04/08 11:03:33;;;;;;;23.63;17.00;;;;;;;10.83;66.43;102503.38;5121053;28;20086;-68
2023/04/08 11:06:02;;;;;;;23.27;17.20;;;;;;;10.85;66.42;102496.78;5105146;27;20066;-67
2023/04/08 11:08:32;;;;;;;23.40;17.13;;;;;;;10.88;66.31;102492.91;5111478;28;20064;-67
2023/04/08 11:11:01;;;;;;;23.10;17.13;;;;;;;10.90;66.36;102490.88;5118133;28;20359;-68
2023/04/08 11:13:29;;;;;;;20.50;15.15;;;;;;;10.93;66.29;102491.34;5115532;28;20312;-67
2023/04/08 11:15:58;;;;;;;22.30;17.40;;;;;;;10.94;66.37;102481.41;5112044;28;20114;-68
2023/04/08 11:18:26;;;;;;;23.63;16.52;;;;;;;10.97;66.21;102486.41;5111992;28;20052;-67
2023/04/08 11:20:55;;;;;;;21.30;17.25;;;;;;;10.95;66.17;102475.00;5111996;28;20044;-67